Time;durP1;ratioP1;P1;durP2;ratioP2;P2;SDS_P1;SDS_P2;PMS_P1;PMS_P2;Temp;Humidity;BMP_temperature;BMP_pressure;BME280_temperature;BME280_humidity;BME280_pressure;Samples;Min_cycle;Max_cycle;Signal;HPM_P1;HPM_P2
2024/04/24 00:00:53;;;;;;;69.68;32.47;;;2.90;99.90;;;;;;7586073;19;20018;-77
2024/04/24 00:03:24;;;;;;;76.30;32.67;;;2.90;99.90;;;;;;7600220;19;20606;-75
2024/04/24 00:06:04;;;;;;;60.17;29.70;;;3.00;99.90;;;;;;7599648;19;20018;-78
2024/04/24 00:08:35;;;;;;;61.75;30.25;;;2.90;99.90;;;;;;7583492;19;20022;-79
2024/04/24 00:11:06;;;;;;;60.35;29.33;;;2.90;99.90;;;;;;7577823;19;20046;-79
2024/04/24 00:13:38;;;;;;;69.13;31.27;;;3.00;99.90;;;;;;7568890;19;22499;-77
2024/04/24 00:16:09;;;;;;;61.25;29.80;;;2.90;99.90;;;;;;7577676;19;20560;-79
2024/04/24 00:18:41;;;;;;;66.35;30.45;;;2.90;99.90;;;;;;7576722;19;20034;-76
2024/04/24 00:21:12;;;;;;;63.67;28.75;;;3.00;99.90;;;;;;7576260;19;20014;-81
2024/04/24 00:23:44;;;;;;;71.72;32.50;;;3.00;99.90;;;;;;7574314;19;20014;-78
2024/04/24 00:26:15;;;;;;;63.97;29.10;;;2.90;99.90;;;;;;7578759;19;20678;-79
2024/04/24 00:28:47;;;;;;;60.42;29.40;;;2.90;99.90;;;;;;7580901;19;20049;-80
2024/04/24 00:31:19;;;;;;;71.73;31.10;;;2.90;99.90;;;;;;7569033;19;20016;-78
2024/04/24 00:33:50;;;;;;;70.53;32.88;;;2.90;99.90;;;;;;7576694;19;20925;-77
2024/04/24 00:36:21;;;;;;;70.45;30.33;;;2.90;99.90;;;;;;7578246;19;20769;-77
2024/04/24 00:38:53;;;;;;;68.35;32.17;;;2.90;99.90;;;;;;7579730;19;20015;-78
2024/04/24 00:41:24;;;;;;;76.57;32.83;;;2.90;99.90;;;;;;7573271;19;20014;-77
2024/04/24 00:43:56;;;;;;;69.68;30.83;;;3.00;99.90;;;;;;7574983;19;20011;-77
2024/04/24 00:46:30;;;;;;;76.78;33.28;;;3.00;99.90;;;;;;7570169;19;21253;-79
2024/04/24 00:49:04;;;;;;;68.05;29.33;;;3.00;99.90;;;;;;7574495;19;20751;-77
2024/04/24 00:51:40;;;;;;;65.78;31.10;;;3.00;99.90;;;;;;7582843;19;20018;-78
2024/04/24 00:54:14;;;;;;;70.60;33.40;;;3.00;99.90;;;;;;7580000;19;20018;-78
2024/04/24 00:56:45;;;;;;;67.20;31.90;;;3.00;99.90;;;;;;7579561;19;20453;-77
2024/04/24 00:59:18;;;;;;;72.88;33.63;;;3.00;99.90;;;;;;7586288;19;20065;-80
2024/04/24 01:01:52;;;;;;;66.47;32.38;;;3.00;99.90;;;;;;7587868;19;20046;-78
2024/04/24 01:04:24;;;;;;;70.45;32.85;;;2.90;99.90;;;;;;7573860;19;20559;-82
2024/04/24 01:07:00;;;;;;;74.20;33.55;;;3.00;99.90;;;;;;7575955;19;20030;-78
2024/04/24 01:09:32;;;;;;;64.13;30.80;;;2.90;99.90;;;;;;7571685;19;20782;-80
2024/04/24 01:12:05;;;;;;;70.53;33.08;;;2.90;99.90;;;;;;7572399;19;20054;-78
2024/04/24 01:14:40;;;;;;;;;;;2.90;99.90;;;;;;7581568;19;20022;-76
2024/04/24 01:17:16;;;;;;;71.68;32.60;;;3.00;99.90;;;;;;7571570;19;19919;-81
2024/04/24 01:19:50;;;;;;;78.22;33.08;;;2.90;99.90;;;;;;7570573;19;20026;-78
2024/04/24 01:22:52;;;;;;;74.35;32.60;;;2.90;99.90;;;;;;7590409;19;20022;-77
2024/04/24 01:25:34;;;;;;;73.05;33.45;;;2.90;99.90;;;;;;7582902;19;20014;-79
2024/04/24 01:28:07;;;;;;;71.07;30.17;;;2.90;99.90;;;;;;7569851;19;20026;-77
2024/04/24 01:30:39;;;;;;;78.65;33.28;;;2.90;99.90;;;;;;7560648;19;20022;-79
2024/04/24 01:33:10;;;;;;;66.80;31.38;;;2.90;99.90;;;;;;7569988;19;20018;-79
2024/04/24 01:35:42;;;;;;;75.07;33.38;;;2.90;99.90;;;;;;7584212;19;20014;-78
2024/04/24 01:38:13;;;;;;;66.82;32.47;;;2.90;99.90;;;;;;7588830;19;20055;-79
2024/04/24 01:40:44;;;;;;;63.35;29.65;;;2.90;99.90;;;;;;7586822;19;20015;-79
2024/04/24 01:43:15;;;;;;;68.90;31.98;;;2.90;99.90;;;;;;7588190;19;20022;-79
2024/04/24 01:45:46;;;;;;;82.57;35.38;;;3.00;99.90;;;;;;7585019;19;20018;-77
2024/04/24 01:48:18;;;;;;;70.32;32.25;;;3.00;99.90;;;;;;7580134;19;20035;-77
2024/04/24 01:50:50;;;;;;;81.53;34.30;;;2.90;99.90;;;;;;7581312;19;20017;-77
2024/04/24 01:53:22;;;;;;;72.38;30.88;;;2.80;99.90;;;;;;7587872;19;20026;-80
2024/04/24 01:55:55;;;;;;;72.78;31.90;;;2.80;99.90;;;;;;7593050;19;20102;-81
2024/04/24 01:58:27;;;;;;;69.28;31.70;;;2.90;99.90;;;;;;7599539;19;20025;-77
2024/04/24 02:00:58;;;;;;;68.55;30.42;;;2.80;99.90;;;;;;7584426;19;20010;-77
2024/04/24 02:03:30;;;;;;;78.13;34.40;;;2.90;99.90;;;;;;7589906;19;20965;-80
2024/04/24 02:06:03;;;;;;;73.35;34.15;;;2.90;99.90;;;;;;7593770;19;20047;-77
2024/04/24 02:08:35;;;;;;;77.93;34.42;;;2.90;99.90;;;;;;7598258;19;20019;-76
2024/04/24 02:11:06;;;;;;;64.32;30.63;;;2.90;99.90;;;;;;7602504;19;20014;-79
2024/04/24 02:13:40;;;;;;;75.50;33.53;;;2.90;99.90;;;;;;7597472;19;20031;-79
2024/04/24 02:16:13;;;;;;;74.95;33.20;;;2.90;99.90;;;;;;7595819;19;20022;-79
2024/04/24 02:18:44;;;;;;;73.43;32.45;;;2.80;99.90;;;;;;7610467;19;20095;-77
2024/04/24 02:21:15;;;;;;;78.60;32.30;;;2.80;99.90;;;;;;7618736;19;20022;-75
2024/04/24 02:23:46;;;;;;;69.05;31.92;;;2.80;99.90;;;;;;7609766;19;20010;-77
2024/04/24 02:26:18;;;;;;;71.45;31.65;;;2.80;99.90;;;;;;7623064;19;20038;-77
2024/04/24 02:28:49;;;;;;;69.78;30.25;;;2.80;99.90;;;;;;7611466;19;20306;-80
2024/04/24 02:31:20;;;;;;;72.70;32.67;;;2.80;99.90;;;;;;7611100;19;20018;-79
2024/04/24 02:33:51;;;;;;;66.68;30.75;;;2.80;99.90;;;;;;7610928;19;20075;-78
2024/04/24 02:36:22;;;;;;;70.28;31.48;;;2.80;99.90;;;;;;7618026;19;20006;-76
2024/04/24 02:38:54;;;;;;;72.20;32.00;;;2.80;99.90;;;;;;7607122;19;20322;-78
2024/04/24 02:41:25;;;;;;;71.57;33.00;;;2.70;99.90;;;;;;7612211;19;20039;-77
2024/04/24 02:43:56;;;;;;;64.18;30.02;;;2.70;99.90;;;;;;7602803;19;20970;-81
2024/04/24 02:46:28;;;;;;;76.57;37.30;;;2.80;99.90;;;;;;7595463;19;20014;-79
2024/04/24 02:48:59;;;;;;;71.65;32.88;;;2.80;99.90;;;;;;7600187;19;20014;-79
2024/04/24 02:51:30;;;;;;;65.07;27.70;;;2.70;99.90;;;;;;7603643;19;20018;-78
2024/04/24 02:54:02;;;;;;;63.13;28.73;;;2.70;99.90;;;;;;7600482;19;20026;-79
2024/04/24 02:56:33;;;;;;;67.32;30.30;;;2.70;99.90;;;;;;7592095;19;20018;-80
2024/04/24 02:59:04;;;;;;;67.03;29.60;;;2.70;99.90;;;;;;7596965;19;20018;-78
2024/04/24 03:01:35;;;;;;;69.05;30.45;;;2.70;99.90;;;;;;7594056;19;20431;-80
2024/04/24 03:04:07;;;;;;;71.65;31.40;;;2.70;99.90;;;;;;7594410;19;20014;-80
2024/04/24 03:06:42;;;;;;;59.33;28.23;;;2.60;99.90;;;;;;7601077;19;20054;-78
2024/04/24 03:09:14;;;;;;;63.72;28.05;;;2.70;99.90;;;;;;7597037;19;20015;-78
2024/04/24 03:11:45;;;;;;;72.60;31.50;;;2.70;99.90;;;;;;7603049;19;20019;-79
2024/04/24 03:14:20;;;;;;;73.20;32.05;;;2.70;99.90;;;;;;7588132;19;20036;-79
2024/04/24 03:16:52;;;;;;;71.05;30.30;;;2.60;99.90;;;;;;7589372;19;20018;-79
2024/04/24 03:19:23;;;;;;;64.20;28.33;;;2.60;99.90;;;;;;7590432;19;20121;-78
2024/04/24 03:21:54;;;;;;;81.30;34.13;;;2.60;99.90;;;;;;7586790;19;20007;-78
2024/04/24 03:24:26;;;;;;;69.78;31.17;;;2.60;99.90;;;;;;7591507;19;20047;-76
2024/04/24 03:27:01;;;;;;;65.45;30.13;;;2.60;99.90;;;;;;7587585;19;20500;-79
2024/04/24 03:29:32;;;;;;;80.18;31.98;;;2.70;99.90;;;;;;7594103;19;20961;-78
2024/04/24 03:32:04;;;;;;;77.13;33.13;;;2.60;99.90;;;;;;7582265;19;20033;-77
2024/04/24 03:34:35;;;;;;;66.90;30.20;;;2.60;99.90;;;;;;7590731;19;20026;-79
2024/04/24 03:37:06;;;;;;;68.88;31.42;;;2.60;99.90;;;;;;7591766;19;20025;-77
2024/04/24 03:39:37;;;;;;;74.95;31.08;;;2.70;99.90;;;;;;7592036;19;20014;-78
2024/04/24 03:42:08;;;;;;;73.13;31.88;;;2.70;99.90;;;;;;7583186;19;20010;-76
2024/04/24 03:44:40;;;;;;;72.60;31.77;;;2.70;99.90;;;;;;7579103;19;20026;-79
2024/04/24 03:47:12;;;;;;;68.93;31.13;;;2.70;99.90;;;;;;7579259;19;20025;-77
2024/04/24 03:49:44;;;;;;;82.10;31.83;;;2.70;99.90;;;;;;7585082;19;20015;-78
2024/04/24 03:52:15;;;;;;;74.80;32.92;;;2.70;99.90;;;;;;7582994;19;20025;-77
2024/04/24 03:54:46;;;;;;;72.65;31.55;;;2.70;99.90;;;;;;7586357;19;20015;-76
2024/04/24 03:57:17;;;;;;;63.72;29.45;;;2.80;99.90;;;;;;7590751;19;20025;-78
2024/04/24 03:59:49;;;;;;;71.10;30.73;;;2.80;99.90;;;;;;7592189;19;20014;-76
2024/04/24 04:02:20;;;;;;;62.90;27.65;;;2.80;99.90;;;;;;7589774;19;20014;-79
2024/04/24 04:04:51;;;;;;;60.30;28.73;;;2.80;99.90;;;;;;7589979;19;20078;-77
2024/04/24 04:07:22;;;;;;;65.68;28.50;;;2.80;99.90;;;;;;7588389;19;20014;-77
2024/04/24 04:09:54;;;;;;;55.85;27.05;;;2.80;99.90;;;;;;7592720;19;20010;-78
2024/04/24 04:12:25;;;;;;;68.20;30.90;;;2.80;99.90;;;;;;7576871;19;20024;-78
2024/04/24 04:14:56;;;;;;;59.83;26.67;;;2.80;99.90;;;;;;7591797;19;20913;-81
2024/04/24 04:17:27;;;;;;;67.53;30.58;;;2.80;99.90;;;;;;7588706;19;20027;-78
2024/04/24 04:19:59;;;;;;;57.95;27.23;;;2.80;99.90;;;;;;7600510;19;20037;-80
2024/04/24 04:22:30;;;;;;;68.10;29.60;;;2.80;99.90;;;;;;7593512;19;20014;-78
2024/04/24 04:25:01;;;;;;;64.70;29.23;;;2.80;99.90;;;;;;7585095;19;20728;-75
2024/04/24 04:27:33;;;;;;;71.43;30.85;;;2.80;99.90;;;;;;7589126;19;20026;-78
2024/04/24 04:30:05;;;;;;;64.20;28.73;;;2.80;99.90;;;;;;7579717;19;20007;-78
2024/04/24 04:32:37;;;;;;;57.97;25.38;;;2.80;99.90;;;;;;7577264;19;20019;-79
2024/04/24 04:35:08;;;;;;;60.03;26.15;;;2.80;99.90;;;;;;7588060;19;20014;-79
2024/04/24 04:37:41;;;;;;;62.28;28.35;;;2.80;99.90;;;;;;7581939;19;20439;-76
2024/04/24 04:40:12;;;;;;;58.42;27.17;;;2.80;99.90;;;;;;7571606;19;20014;-79
2024/04/24 04:42:43;;;;;;;67.05;29.42;;;2.80;99.90;;;;;;7582992;19;20018;-78
2024/04/24 04:45:14;;;;;;;77.03;31.35;;;2.90;99.90;;;;;;7564937;19;20043;-78
2024/04/24 04:47:45;;;;;;;55.85;27.27;;;2.90;99.90;;;;;;7563382;19;20015;-79
2024/04/24 04:50:17;;;;;;;58.25;26.67;;;2.90;99.90;;;;;;7577602;19;20010;-77
2024/04/24 04:52:48;;;;;;;64.38;30.27;;;2.90;99.90;;;;;;7561813;19;20742;-77
2024/04/24 04:55:19;;;;;;;62.08;26.50;;;2.90;99.90;;;;;;7552956;19;21328;-80
2024/04/24 04:57:51;;;;;;;58.67;26.38;;;2.90;99.90;;;;;;7559575;19;20684;-81
2024/04/24 05:00:23;;;;;;;61.13;28.20;;;2.90;99.90;;;;;;7562221;19;20113;-78
2024/04/24 05:02:54;;;;;;;57.97;27.52;;;2.90;99.90;;;;;;7560575;19;20026;-79
2024/04/24 05:05:25;;;;;;;56.50;26.42;;;2.90;99.90;;;;;;7589270;19;20013;-81
2024/04/24 05:07:57;;;;;;;51.47;25.00;;;3.00;99.90;;;;;;7585831;19;20036;-79
2024/04/24 05:10:28;;;;;;;51.13;24.92;;;2.90;99.90;;;;;;7573112;19;20022;-79
2024/04/24 05:12:59;;;;;;;54.78;26.10;;;3.00;99.90;;;;;;7575204;19;20383;-80
2024/04/24 05:15:30;;;;;;;58.35;29.08;;;3.00;99.90;;;;;;7564528;19;20472;-81
2024/04/24 05:18:04;;;;;;;55.30;26.83;;;3.00;99.90;;;;;;7549764;19;20012;-82
2024/04/24 05:20:35;;;;;;;51.88;25.02;;;3.00;99.90;;;;;;7581679;19;20589;-78
2024/04/24 05:23:07;;;;;;;51.88;25.45;;;3.00;99.90;;;;;;7563225;19;20006;-79
2024/04/24 05:25:38;;;;;;;51.15;24.80;;;3.00;99.90;;;;;;7575154;19;20117;-81
2024/04/24 05:30:59;;;;;;;52.72;25.45;;;3.10;99.90;;;;;;7537543;19;20031;-79
2024/04/24 05:33:30;;;;;;;58.47;26.20;;;3.10;99.90;;;;;;7551930;19;20734;-80
2024/04/24 05:36:01;;;;;;;49.97;25.50;;;3.10;99.90;;;;;;7582568;19;20032;-81
2024/04/24 05:38:32;;;;;;;59.10;27.35;;;3.10;99.90;;;;;;7578986;19;20023;-77
2024/04/24 05:41:04;;;;;;;49.15;23.90;;;3.20;99.90;;;;;;7586202;19;20011;-82
2024/04/24 05:43:35;;;;;;;54.30;26.88;;;3.20;99.90;;;;;;7585682;19;20105;-81
2024/04/24 05:46:06;;;;;;;55.40;27.08;;;3.20;99.90;;;;;;7567007;19;20031;-78
2024/04/24 05:48:37;;;;;;;54.63;26.27;;;3.20;99.90;;;;;;7579517;19;20015;-77
2024/04/24 05:51:08;;;;;;;55.70;26.48;;;3.30;99.90;;;;;;7578907;19;20014;-80
2024/04/24 05:53:39;;;;;;;54.05;25.70;;;3.30;99.90;;;;;;7574345;19;20011;-80
2024/04/24 05:56:10;;;;;;;52.22;25.17;;;3.20;99.90;;;;;;7566929;19;20026;-79
2024/04/24 05:58:43;;;;;;;50.15;24.35;;;3.30;99.90;;;;;;7565826;19;21051;-79
2024/04/24 06:01:14;;;;;;;47.67;24.07;;;3.30;99.90;;;;;;7563455;19;20112;-78
2024/04/24 06:03:45;;;;;;;52.03;24.75;;;3.30;99.90;;;;;;7571601;19;21363;-76
2024/04/24 06:06:16;;;;;;;49.30;25.90;;;3.40;99.90;;;;;;7571777;19;20026;-81
2024/04/24 06:08:48;;;;;;;52.13;26.13;;;3.40;99.90;;;;;;7583922;19;21621;-78
2024/04/24 06:11:19;;;;;;;48.20;23.63;;;3.40;99.90;;;;;;7595601;19;20028;-82
2024/04/24 06:13:50;;;;;;;48.15;24.50;;;3.40;99.90;;;;;;7579822;19;20050;-78
2024/04/24 06:16:21;;;;;;;49.35;25.70;;;3.50;99.90;;;;;;7560279;19;20007;-81
2024/04/24 06:18:53;;;;;;;47.88;24.15;;;3.50;99.90;;;;;;7573078;19;20023;-80
2024/04/24 06:21:24;;;;;;;47.47;24.70;;;3.50;99.90;;;;;;7586739;19;20021;-76
2024/04/24 06:23:56;;;;;;;45.67;23.05;;;3.60;99.90;;;;;;7585464;19;20018;-80
2024/04/24 06:26:27;;;;;;;46.38;25.00;;;3.70;99.90;;;;;;7580976;19;20018;-78
2024/04/24 06:28:58;;;;;;;49.40;26.27;;;3.60;99.90;;;;;;7579024;19;20019;-79
2024/04/24 06:31:29;;;;;;;44.55;23.40;;;3.70;99.90;;;;;;7585411;19;20026;-78
2024/04/24 06:34:02;;;;;;;47.25;23.50;;;3.80;99.90;;;;;;7572173;19;20033;-79
2024/04/24 06:36:33;;;;;;;44.13;23.45;;;3.80;99.90;;;;;;7576981;19;20039;-79
2024/04/24 06:39:04;;;;;;;42.53;22.35;;;3.90;99.90;;;;;;7585730;19;20023;-80
2024/04/24 06:41:35;;;;;;;48.03;24.98;;;3.90;99.90;;;;;;7567980;19;20023;-79
2024/04/24 06:44:06;;;;;;;41.47;23.20;;;4.00;99.90;;;;;;7574983;19;20019;-81
2024/04/24 06:46:37;;;;;;;47.70;24.17;;;4.00;99.90;;;;;;7573479;19;20111;-80
2024/04/24 06:49:08;;;;;;;42.97;23.00;;;4.00;99.90;;;;;;7579845;19;20521;-78
2024/04/24 06:51:39;;;;;;;38.60;20.00;;;4.20;99.90;;;;;;7582490;19;20098;-78
2024/04/24 06:54:10;;;;;;;41.08;21.75;;;4.20;99.90;;;;;;7564727;19;20033;-78
2024/04/24 06:56:41;;;;;;;36.95;21.65;;;4.10;99.90;;;;;;7581806;19;20041;-80
2024/04/24 06:59:12;;;;;;;39.88;23.38;;;4.20;99.90;;;;;;7566945;19;20093;-77
2024/04/24 07:01:43;;;;;;;36.70;19.73;;;4.10;99.90;;;;;;7572972;19;20018;-81
2024/04/24 07:04:15;;;;;;;38.10;20.58;;;4.20;99.90;;;;;;7572749;19;20503;-79
2024/04/24 07:06:46;;;;;;;36.00;17.95;;;4.20;99.90;;;;;;7555849;19;20024;-81
2024/04/24 07:09:18;;;;;;;34.40;18.52;;;4.30;99.90;;;;;;7555202;19;20037;-82
2024/04/24 07:11:50;;;;;;;37.17;20.35;;;4.30;99.90;;;;;;7573331;19;20093;-78
2024/04/24 07:14:21;;;;;;;34.55;19.58;;;4.40;99.90;;;;;;7565801;19;20026;-80
2024/04/24 07:16:52;;;;;;;38.97;21.67;;;4.40;99.90;;;;;;7571264;19;20011;-81
2024/04/24 07:19:24;;;;;;;35.67;21.05;;;4.50;99.90;;;;;;7573674;19;20043;-81
2024/04/24 07:21:55;;;;;;;40.72;22.35;;;4.60;99.90;;;;;;7579173;19;21214;-83
2024/04/24 07:24:26;;;;;;;38.35;20.70;;;4.70;99.90;;;;;;7577905;19;20050;-80
2024/04/24 07:26:57;;;;;;;34.08;19.77;;;4.70;99.90;;;;;;7555499;19;20019;-82
2024/04/24 07:29:29;;;;;;;32.33;18.27;;;4.70;99.90;;;;;;7554518;19;20843;-81
2024/04/24 07:32:00;;;;;;;34.55;19.95;;;4.70;99.90;;;;;;7565269;19;20015;-83
2024/04/24 07:34:31;;;;;;;38.60;21.50;;;4.70;99.90;;;;;;7567529;19;21269;-81
2024/04/24 07:37:02;;;;;;;35.53;18.83;;;4.80;99.90;;;;;;7571894;19;20901;-82
2024/04/24 07:39:33;;;;;;;39.55;21.65;;;4.80;99.90;;;;;;7566870;19;20014;-81
2024/04/24 07:42:05;;;;;;;31.27;19.15;;;4.80;99.90;;;;;;7575025;19;20022;-78
2024/04/24 07:44:36;;;;;;;32.78;18.25;;;4.90;99.90;;;;;;7559082;19;20019;-80
2024/04/24 07:47:07;;;;;;;32.72;19.40;;;5.00;99.90;;;;;;7567997;19;20935;-79
2024/04/24 07:49:38;;;;;;;34.85;19.92;;;5.00;99.90;;;;;;7565620;19;20723;-80
2024/04/24 07:52:10;;;;;;;34.13;17.48;;;5.00;99.90;;;;;;7567368;19;20102;-79
2024/04/24 07:54:42;;;;;;;28.40;17.02;;;5.20;99.90;;;;;;7575346;19;20198;-77
2024/04/24 07:57:13;;;;;;;28.70;16.48;;;5.30;99.90;;;;;;7566924;19;20023;-82
2024/04/24 07:59:44;;;;;;;25.33;15.38;;;5.50;99.90;;;;;;7567846;19;20452;-82
2024/04/24 08:02:15;;;;;;;28.52;18.05;;;5.60;99.90;;;;;;7544364;19;20219;-80
2024/04/24 08:04:46;;;;;;;25.10;15.57;;;5.60;99.90;;;;;;7578109;19;20022;-78
2024/04/24 08:07:17;;;;;;;26.98;14.55;;;5.50;99.90;;;;;;7572114;19;20639;-78
2024/04/24 08:09:51;;;;;;;23.85;15.65;;;5.60;99.90;;;;;;7558768;19;20027;-81
2024/04/24 08:12:23;;;;;;;23.45;14.15;;;5.70;99.90;;;;;;7566561;19;20014;-80
2024/04/24 08:14:54;;;;;;;25.13;14.52;;;5.90;99.90;;;;;;7571268;19;20030;-78
2024/04/24 08:17:25;;;;;;;23.83;13.90;;;5.80;99.90;;;;;;7563836;19;20464;-76
2024/04/24 08:19:56;;;;;;;23.88;14.88;;;6.00;99.90;;;;;;7572200;19;20031;-77
2024/04/24 08:22:28;;;;;;;24.48;15.35;;;6.20;99.90;;;;;;7565153;19;20461;-78
2024/04/24 08:24:59;;;;;;;23.38;15.02;;;6.40;99.90;;;;;;7575574;19;20035;-81
2024/04/24 08:27:53;;;;;;;27.25;17.17;;;6.50;99.90;;;;;;7562471;19;20023;-82
2024/04/24 08:30:24;;;;;;;24.48;16.65;;;6.60;99.90;;;;;;7560504;19;20082;-80
2024/04/24 08:32:56;;;;;;;21.67;13.50;;;6.60;99.90;;;;;;7570779;19;20010;-78
2024/04/24 08:35:27;;;;;;;20.52;13.48;;;6.60;99.90;;;;;;7572689;19;21398;-79
2024/04/24 08:37:58;;;;;;;22.85;12.65;;;6.50;99.90;;;;;;7564449;19;20107;-83
2024/04/24 08:40:32;;;;;;;21.88;14.00;;;6.50;99.90;;;;;;7578886;19;20018;-82
2024/04/24 08:43:04;;;;;;;20.55;13.50;;;6.60;99.90;;;;;;7577748;19;20014;-82
2024/04/24 08:45:36;;;;;;;20.42;14.38;;;6.80;99.90;;;;;;7553306;19;20611;-80
2024/04/24 08:48:08;;;;;;;19.30;12.40;;;6.90;99.90;;;;;;7567723;19;20011;-80
2024/04/24 08:50:40;;;;;;;20.70;12.23;;;7.10;99.90;;;;;;7564267;19;20733;-79
2024/04/24 08:53:13;;;;;;;20.50;13.03;;;7.20;99.90;;;;;;7566132;19;20019;-79
2024/04/24 08:55:46;;;;;;;20.70;13.88;;;7.00;99.90;;;;;;7567702;19;20022;-77
2024/04/24 08:58:22;;;;;;;23.50;13.60;;;7.10;99.90;;;;;;7568530;19;20022;-81
2024/04/24 09:00:57;;;;;;;20.73;13.88;;;7.20;99.90;;;;;;7585903;19;20027;-79
2024/04/24 09:03:32;;;;;;;20.77;12.55;;;7.20;99.90;;;;;;7561998;19;20019;-81
2024/04/24 09:06:05;;;;;;;20.60;12.35;;;7.20;99.90;;;;;;7575285;19;20034;-77
2024/04/24 09:08:38;;;;;;;19.58;12.05;;;7.10;99.90;;;;;;7584167;19;20110;-80
2024/04/24 09:11:10;;;;;;;19.40;11.25;;;7.10;99.90;;;;;;7569562;19;21370;-79
2024/04/24 09:13:43;;;;;;;18.33;12.20;;;7.20;99.90;;;;;;7566278;19;20014;-81
2024/04/24 09:16:18;;;;;;;18.15;12.18;;;7.20;99.90;;;;;;7567480;19;20014;-79
2024/04/24 09:19:03;;;;;;;20.52;13.35;;;7.20;99.90;;;;;;7571072;19;21113;-79
2024/04/24 09:21:35;;;;;;;20.70;12.35;;;7.10;99.90;;;;;;7586709;19;20022;-78
2024/04/24 09:24:06;;;;;;;21.15;12.90;;;7.10;99.90;;;;;;7577686;19;21961;-81
2024/04/24 09:26:37;;;;;;;18.77;12.85;;;7.10;99.90;;;;;;7578418;19;20011;-80
2024/04/24 09:29:13;;;;;;;19.30;12.02;;;7.00;99.90;;;;;;7581415;19;20025;-79
2024/04/24 09:31:44;;;;;;;19.95;12.07;;;6.90;99.90;;;;;;7573404;19;20047;-77
2024/04/24 09:34:15;;;;;;;17.55;12.75;;;6.80;99.90;;;;;;7586348;19;20504;-80
2024/04/24 09:36:46;;;;;;;20.58;12.25;;;6.70;99.90;;;;;;7588352;19;20026;-78
2024/04/24 09:39:18;;;;;;;16.42;11.43;;;6.70;99.90;;;;;;7580861;19;20088;-83
2024/04/24 09:41:50;;;;;;;19.08;11.02;;;6.70;99.90;;;;;;7595796;19;20913;-79
2024/04/24 09:44:27;;;;;;;18.05;11.45;;;6.60;99.90;;;;;;7593089;19;20015;-82
2024/04/24 09:47:03;;;;;;;19.20;11.63;;;6.60;99.90;;;;;;7586620;19;20019;-81
2024/04/24 09:49:37;;;;;;;16.58;11.57;;;6.70;99.90;;;;;;7585754;19;21072;-79
2024/04/24 09:52:15;;;;;;;15.85;11.10;;;6.60;99.90;;;;;;7585821;19;20018;-77
2024/04/24 09:54:48;;;;;;;17.25;11.23;;;6.50;99.90;;;;;;7587571;19;20081;-80
2024/04/24 09:57:27;;;;;;;15.73;10.53;;;6.60;99.90;;;;;;7577152;19;20018;-80
2024/04/24 10:00:02;;;;;;;15.75;10.77;;;6.80;99.90;;;;;;7588113;19;20275;-77
2024/04/24 10:02:48;;;;;;;15.10;10.05;;;6.80;99.90;;;;;;7586153;19;20038;-79
2024/04/24 10:05:25;;;;;;;13.65;9.43;;;7.00;99.90;;;;;;7582644;19;21111;-77
2024/04/24 10:08:03;;;;;;;17.25;11.25;;;6.90;99.90;;;;;;7581185;19;20026;-79
2024/04/24 10:10:48;;;;;;;16.85;10.30;;;7.00;99.90;;;;;;7578039;19;20025;-80
2024/04/24 10:13:21;;;;;;;16.05;10.27;;;6.80;99.90;;;;;;7571630;19;20018;-79
2024/04/24 10:15:57;;;;;;;14.98;9.70;;;6.60;99.90;;;;;;7591712;19;20472;-78
2024/04/24 10:18:29;;;;;;;19.40;10.65;;;6.20;99.90;;;;;;7582928;19;20022;-77
2024/04/24 10:21:03;;;;;;;18.48;11.82;;;6.00;99.90;;;;;;7574063;19;20082;-76
2024/04/24 10:23:36;;;;;;;17.58;11.85;;;5.50;99.90;;;;;;7559555;19;20459;-76
2024/04/24 10:26:08;;;;;;;16.15;9.70;;;5.10;99.90;;;;;;7585356;19;20015;-81
2024/04/24 10:28:42;;;;;;;20.10;10.48;;;4.60;99.90;;;;;;7583635;19;20069;-81
2024/04/24 10:31:14;;;;;;;16.50;9.75;;;4.30;99.90;;;;;;7579457;19;20029;-79
2024/04/24 10:33:46;;;;;;;17.48;11.02;;;4.00;99.90;;;;;;7575217;19;20045;-76
2024/04/24 10:36:17;;;;;;;18.70;10.07;;;3.70;99.90;;;;;;7574034;19;20021;-80
2024/04/24 10:38:54;;;;;;;17.08;11.13;;;3.70;99.90;;;;;;7578049;19;20015;-80
2024/04/24 10:45:19;;;;;;;22.77;12.68;;;3.80;99.90;;;;;;7581143;19;20010;-79
2024/04/24 10:47:52;;;;;;;20.17;12.38;;;4.00;99.90;;;;;;7586757;19;20435;-77
2024/04/24 10:50:28;;;;;;;16.83;11.48;;;4.00;99.90;;;;;;7585904;19;20018;-78
2024/04/24 10:53:02;;;;;;;17.95;11.35;;;4.20;99.90;;;;;;7589125;19;20018;-81
2024/04/24 10:55:34;;;;;;;18.52;11.02;;;4.40;99.90;;;;;;7584785;19;20003;-80
2024/04/24 10:58:19;;;;;;;20.00;11.18;;;4.60;99.90;;;;;;7575325;19;20015;-80
2024/04/24 11:00:50;;;;;;;15.85;10.27;;;5.00;99.90;;;;;;7578445;19;20026;-80
2024/04/24 11:03:25;;;;;;;14.85;9.38;;;5.40;99.90;;;;;;7570253;19;20692;-80
2024/04/24 11:06:09;;;;;;;13.18;8.93;;;5.90;99.90;;;;;;7571800;19;20022;-79
2024/04/24 11:08:42;;;;;;;13.60;8.73;;;6.40;99.90;;;;;;7580412;19;20627;-80
2024/04/24 11:11:22;;;;;;;12.52;8.77;;;6.80;99.90;;;;;;7568806;19;20156;-80
2024/04/24 11:14:02;;;;;;;15.18;8.60;;;7.00;99.90;;;;;;7563669;19;20018;-80
2024/04/24 11:16:33;;;;;;;13.60;8.55;;;7.10;99.90;;;;;;7560045;19;20474;-79
2024/04/24 11:19:04;;;;;;;9.75;6.45;;;7.10;99.90;;;;;;7563206;19;20052;-80
2024/04/24 11:21:35;;;;;;;11.52;6.20;;;7.00;99.90;;;;;;7567073;19;20436;-77
2024/04/24 11:24:07;;;;;;;9.93;6.03;;;7.00;99.90;;;;;;7549899;19;20010;-81
2024/04/24 11:26:38;;;;;;;9.63;4.70;;;7.10;99.90;;;;;;7545122;19;20019;-79
2024/04/24 11:29:10;;;;;;;8.80;4.93;;;7.10;99.90;;;;;;7555065;19;20006;-76
2024/04/24 11:31:45;;;;;;;7.20;5.50;;;7.00;99.90;;;;;;7528746;19;20022;-79
2024/04/24 11:34:18;;;;;;;6.93;5.47;;;7.00;99.90;;;;;;7540024;19;20050;-80
2024/04/24 11:36:49;;;;;;;9.45;5.80;;;7.00;99.90;;;;;;7526563;19;20026;-78
2024/04/24 11:39:22;;;;;;;10.90;6.07;;;6.90;99.90;;;;;;7534426;19;20630;-79
2024/04/24 11:41:56;;;;;;;10.27;6.40;;;7.20;99.90;;;;;;7560432;19;20047;-76
2024/04/24 11:44:28;;;;;;;11.18;5.65;;;7.10;99.90;;;;;;7550439;19;20014;-76
2024/04/24 11:47:00;;;;;;;10.85;6.05;;;6.90;99.90;;;;;;7551667;19;20022;-77
2024/04/24 11:49:32;;;;;;;7.90;5.15;;;6.50;99.90;;;;;;7550194;19;20043;-80
2024/04/24 11:55:35;;;;;;;9.75;6.45;;;6.10;99.90;;;;;;7261686;19;3007702;-77
2024/04/24 11:58:13;;;;;;;9.38;6.68;;;6.10;99.90;;;;;;7454393;19;20378;-78
2024/04/24 12:00:44;;;;;;;10.48;6.60;;;6.10;99.90;;;;;;7467023;19;20611;-79
2024/04/24 12:03:15;;;;;;;10.95;6.80;;;6.20;99.90;;;;;;7496563;19;21575;-80
2024/04/24 12:05:47;;;;;;;8.82;5.97;;;6.30;99.90;;;;;;7471327;19;20761;-78
2024/04/24 12:08:29;;;;;;;9.88;5.78;;;6.30;99.90;;;;;;7523307;19;20197;-80
2024/04/24 12:11:04;;;;;;;10.00;7.10;;;6.10;99.90;;;;;;7524476;19;20089;-76
2024/04/24 12:13:36;;;;;;;11.25;7.70;;;5.90;99.90;;;;;;7430845;19;20018;-80
2024/04/24 12:16:07;;;;;;;13.48;8.00;;;5.70;99.90;;;;;;7533719;19;20036;-77
2024/04/24 12:18:39;;;;;;;14.15;7.45;;;5.80;99.90;;;;;;7519157;19;20121;-79
2024/04/24 12:21:11;;;;;;;9.95;6.45;;;6.10;99.90;;;;;;7436611;19;20025;-79
2024/04/24 12:23:42;;;;;;;12.63;5.80;;;6.80;99.90;;;;;;7487455;19;20050;-80
2024/04/24 12:26:14;;;;;;;8.77;5.88;;;7.00;99.90;;;;;;7513047;19;20475;-79
2024/04/24 12:28:45;;;;;;;12.68;6.10;;;7.50;99.90;;;;;;7551848;19;20772;-81
2024/04/24 12:31:16;;;;;;;12.00;6.50;;;7.70;99.90;;;;;;7582788;19;20006;-77
2024/04/24 12:33:48;;;;;;;11.65;6.30;;;7.50;99.90;;;;;;7561729;19;21063;-80
2024/04/24 12:36:19;;;;;;;12.80;6.90;;;7.40;99.90;;;;;;7537900;19;20078;-79
2024/04/24 12:38:52;;;;;;;12.48;7.40;;;7.30;99.90;;;;;;7501321;19;20789;-79
2024/04/24 12:41:23;;;;;;;11.15;7.00;;;7.40;99.90;;;;;;7501668;19;20128;-79
2024/04/24 12:43:54;;;;;;;8.68;6.68;;;7.70;99.90;;;;;;7500862;19;21252;-78
2024/04/24 12:46:26;;;;;;;8.93;6.35;;;8.30;99.90;;;;;;7509645;19;20038;-78
2024/04/24 12:48:57;;;;;;;8.48;6.20;;;8.70;99.90;;;;;;7515491;19;20230;-81
2024/04/24 12:51:30;;;;;;;10.00;6.20;;;9.30;99.90;;;;;;7504745;19;20304;-83
2024/04/24 12:54:02;;;;;;;;;;;9.40;99.90;;;;;;7521963;19;20018;-79
2024/04/24 12:56:33;;;;;;;11.10;6.30;;;9.50;99.90;;;;;;7511276;19;19941;-79
2024/04/24 12:59:05;;;;;;;8.20;6.13;;;9.70;99.90;;;;;;7497015;19;20021;-79
2024/04/24 13:01:36;;;;;;;9.20;6.43;;;10.00;99.90;;;;;;7483304;19;20833;-79
2024/04/24 13:04:07;;;;;;;8.07;5.65;;;10.30;99.90;;;;;;7487627;19;20302;-80
2024/04/24 13:06:39;;;;;;;8.15;5.25;;;10.60;99.70;;;;;;7515205;19;21013;-81
2024/04/24 13:09:11;;;;;;;6.93;5.60;;;10.70;98.30;;;;;;7543515;19;20444;-77
2024/04/24 13:11:43;;;;;;;7.63;5.80;;;10.70;98.50;;;;;;7507892;19;21693;-79
2024/04/24 13:14:14;;;;;;;8.15;6.18;;;10.70;98.80;;;;;;7478991;19;20118;-79
2024/04/24 13:16:45;;;;;;;9.63;6.25;;;11.30;96.50;;;;;;7506488;19;20007;-78